EKAH Airport Information

Runway Information
Runway 10L Length 9111 ft width 75 ft
Elevation 79 ft Threshold 0 ft Heading 100
Runway 28R Length 9111 ft Width 75 ft
Elevation 78 ft Threshold 0 ft Heading 280
Runway 10R Length 8865 ft width 148 ft
Elevation 81 ft Threshold 0 ft Heading 100
Runway 28L Length 8865 ft Width 148 ft
Elevation 75 ft Threshold 0 ft Heading 280
Airport Frequencies
Type APP Name APP Frequency 119.275 MHZ
Type MISC Name HANDLING Frequency 130.225 MHZ
Type MISC Name AIRPORT OF Frequency 130.225 MHZ
Type TWR Name TWR Frequency 118.525 MHZ
Airport Navaids
Type NDB Name Aarhus Frequency 324 KHZ
Type NDB Name Aarhus Frequency 374 KHZ
Airport Weather Information & NOTAM
ADDS - METARS form results

(0635 UTC 15 December 2018)
Data provider http://aviationweather.gov/metar/data/
 
METAR text: EKAH 150620Z AUTO 09001KT 9999NDV BKN013/// 02/01 Q1031
Conditions at: EKAH (TIRSTRUP (CIV/MI, DK) observed 0620 UTC 15 December 2018
Temperature: 2.0°C (36°F)
Dewpoint: 1.0°C (34°F) [RH = 93%]
Pressure (altimeter): 30.44 inches Hg (1031.0 mb)
Winds: from the E (90 degrees) at 1 MPH (1 knots; 0.5 m/s)
Visibility: missing
Ceiling: 1300 feet AGL
Clouds: broken clouds at 1300 feet AGL
Weather: no significant weather observed at this time

METAR text: EKAH 150550Z AUTO 12001KT 9999NDV OVC016/// 02/01 Q1031
Conditions at: EKAH (TIRSTRUP (CIV/MI, DK) observed 0550 UTC 15 December 2018
Temperature: 2.0°C (36°F)
Dewpoint: 1.0°C (34°F) [RH = 93%]
Pressure (altimeter): 30.44 inches Hg (1031.0 mb)
Winds: from the ESE (120 degrees) at 1 MPH (1 knots; 0.5 m/s)
Visibility: missing
Ceiling: 1600 feet AGL
Clouds: overcast cloud deck at 1600 feet AGL
Weather: no significant weather observed at this time

Forecast for: EKAH (TIRSTRUP (CIV/MI, DK)
Text: TAF EKAH 150506Z 1506/1606 15005KT 9999 BKN040
Forecast period: 0600 UTC 15 December 2018 to 0600 UTC 16 December 2018
Forecast type: FROM: standard forecast or significant change
Winds: from the SSE (150 degrees) at 6 MPH (5 knots; 2.6 m/s)
Visibility: 6 or more miles 10+ km)
Ceiling: 4000 feet AGL
Clouds: broken clouds at 4000 feet AGL
Weather: no significant weather forecast for this period
Text: TEMPO 1506/1524 4000 -SHSNRA BKN008 BKN012TCU
Forecast period: 0600 UTC 15 December 2018 to 0000 UTC 16 December 2018
Forecast type: TEMPORARY: The following changes expected for less than half the time period
Visibility: 2.49 miles (4.01 km)
Ceiling: 800 feet AGL
Clouds: broken clouds at 800 feet AGL
broken clouds at 1200 feet AGL
Weather: -SHSN -SHRA  (light snow showers, light rain showers)